Archival Weather

Chicago O'Hare International

Chicago, Illinois (KORD)

Report from: Thursday, November 24, 2022 4:27 PM CST
Current time: Sunday, December 4, 2022 6:20 AM CST

Current weather
Weather history
Weather forecast

Temperature10.6°C (51.1°F)
Dew point5.0°C (41.0°F)
Winds 7 kts (3.6 m/s, 8.1 mph) South-Southwest (210°)
Visibility10 mi. (16.1 km)
Clouds Ceiling: Broken clouds 3,000 ft. (914 m)
Broken clouds 10,000 ft. (3,048 m)
Altimeter30.05 in.Hg (1018 mB)
Relative humidity68 %
Density altitude-545 ft. (-166 m)
Remarks System requires maintenance
Automated weather observing station with precipitation discriminator
Flight conditions Visual Meteorological Conditions
Raw dataKORD 242227Z 21007KT 10SM BKN030 BKN100 11/05 A3005 RMK AO2 T01060050 $
An error has occurred. This application may no longer respond until reloaded. Reload 🗙